Time;durP1;ratioP1;P1;durP2;ratioP2;P2;SDS_P1;SDS_P2;PMS_P1;PMS_P2;Temp;Humidity;BMP_temperature;BMP_pressure;BME280_temperature;BME280_humidity;BME280_pressure;Samples;Min_cycle;Max_cycle;Signal;HPM_P1;HPM_P2
2023/01/25 00:00:44;;;;;;;57.05;30.40;;;;;;;;;;5011236;28;20049;-62
2023/01/25 00:03:10;;;;;;;56.95;30.30;;;;;;;;;;5011662;28;20125;-62
2023/01/25 00:05:36;;;;;;;59.28;30.65;;;;;;;;;;5011977;28;20045;-62
2023/01/25 00:08:03;;;;;;;61.22;32.03;;;;;;;;;;5009965;28;20393;-62
2023/01/25 00:10:29;;;;;;;57.70;31.02;;;;;;;;;;5011680;28;20048;-62
2023/01/25 00:12:55;;;;;;;61.17;31.27;;;;;;;;;;4994838;28;20065;-61
2023/01/25 00:15:22;;;;;;;59.55;31.23;;;;;;;;;;4993831;28;20050;-62
2023/01/25 00:17:48;;;;;;;62.13;31.95;;;;;;;;;;5021335;28;20064;-62
2023/01/25 00:20:14;;;;;;;59.45;32.22;;;;;;;;;;5011154;28;20058;-62
2023/01/25 00:22:40;;;;;;;62.83;33.88;;;;;;;;;;5010989;28;20038;-62
2023/01/25 00:25:07;;;;;;;62.30;32.50;;;;;;;;;;5011651;28;20034;-62
2023/01/25 00:27:33;;;;;;;60.75;32.20;;;;;;;;;;5025708;28;20042;-62
2023/01/25 00:29:59;;;;;;;62.47;31.88;;;;;;;;;;5011788;28;20057;-62
2023/01/25 00:32:33;;;;;;;59.90;30.77;;;;;;;;;;4994017;28;20046;-62
2023/01/25 00:34:59;;;;;;;61.83;30.92;;;;;;;;;;5011612;28;20053;-61
2023/01/25 00:37:25;;;;;;;63.25;32.13;;;;;;;;;;5011156;28;20038;-62
2023/01/25 00:39:51;;;;;;;59.15;28.73;;;;;;;;;;5011473;28;20549;-62
2023/01/25 00:42:18;;;;;;;62.60;32.38;;;;;;;;;;5011361;28;20469;-62
2023/01/25 00:44:44;;;;;;;63.08;33.58;;;;;;;;;;5010841;28;20054;-61
2023/01/25 00:47:11;;;;;;;64.95;32.53;;;;;;;;;;5011569;28;20058;-61
2023/01/25 00:49:38;;;;;;;63.17;32.70;;;;;;;;;;5011932;28;20076;-61
2023/01/25 00:52:04;;;;;;;63.38;31.48;;;;;;;;;;5003925;28;20039;-62
2023/01/25 00:54:30;;;;;;;59.47;30.17;;;;;;;;;;5001923;28;20054;-62
2023/01/25 00:56:56;;;;;;;58.45;31.17;;;;;;;;;;5010809;28;20044;-62
2023/01/25 00:59:23;;;;;;;60.60;32.28;;;;;;;;;;5013318;28;20168;-62
2023/01/25 01:01:49;;;;;;;60.30;32.08;;;;;;;;;;5015007;28;20052;-62
2023/01/25 01:04:15;;;;;;;60.42;31.92;;;;;;;;;;4998132;28;20049;-62
2023/01/25 01:06:42;;;;;;;63.78;32.80;;;;;;;;;;5013471;28;20147;-62
2023/01/25 01:09:11;;;;;;;63.00;32.28;;;;;;;;;;5014578;28;20052;-62
2023/01/25 01:11:37;;;;;;;60.63;30.75;;;;;;;;;;5014464;28;20046;-62
2023/01/25 01:14:03;;;;;;;62.80;31.30;;;;;;;;;;5015148;28;20042;-62
2023/01/25 01:16:29;;;;;;;60.65;30.20;;;;;;;;;;5014117;28;20042;-62
2023/01/25 01:18:55;;;;;;;58.70;31.23;;;;;;;;;;5016429;28;20509;-62
2023/01/25 01:21:21;;;;;;;59.10;31.08;;;;;;;;;;5013675;28;20116;-62
2023/01/25 01:23:47;;;;;;;61.22;31.50;;;;;;;;;;5021021;28;20455;-62
2023/01/25 01:26:15;;;;;;;59.05;29.52;;;;;;;;;;5014745;28;20045;-62
2023/01/25 01:28:41;;;;;;;59.22;31.05;;;;;;;;;;4998371;28;20045;-62
2023/01/25 01:31:12;;;;;;;60.58;31.45;;;;;;;;;;5013846;28;20093;-62
2023/01/25 01:33:38;;;;;;;61.40;31.95;;;;;;;;;;5042622;22;20497;-62
2023/01/25 01:36:09;;;;;;;64.38;32.50;;;;;;;;;;5055725;22;20045;-62
2023/01/25 01:38:35;;;;;;;59.67;30.88;;;;;;;;;;5025624;28;20046;-62
2023/01/25 01:41:01;;;;;;;62.80;32.63;;;;;;;;;;5024842;28;20045;-62
2023/01/25 01:43:27;;;;;;;57.88;29.05;;;;;;;;;;5030579;28;20042;-62
2023/01/25 01:46:03;;;;;;;59.17;30.80;;;;;;;;;;5034087;28;20513;-62
2023/01/25 01:51:34;;;;;;;61.67;30.13;;;;;;;;;;5057037;23;20098;-62
2023/01/25 01:54:05;;;;;;;60.40;30.58;;;;;;;;;;5049524;23;20058;-62
2023/01/25 01:56:37;;;;;;;;;;;0.70;99.90;;;;;;5032051;28;20072;-62
2023/01/25 01:59:04;;;;;;;63.53;30.75;;;;;;;;;;5034104;28;20015;-62
2023/01/25 02:01:30;;;;;;;59.35;29.70;;;;;;;;;;5013479;28;20073;-62
2023/01/25 02:03:56;;;;;;;56.90;29.67;;;;;;;;;;5013896;28;20099;-62
2023/01/25 02:06:50;;;;;;;58.60;29.65;;;0.80;99.90;;;;;;5032149;28;20041;-62
2023/01/25 02:09:18;;;;;;;58.45;31.38;;;;;;;;;;5032216;28;20045;-62
2023/01/25 02:11:45;;;;;;;57.15;29.00;;;;;;;;;;5029476;28;20042;-62
2023/01/25 02:14:11;;;;;;;55.28;27.02;;;;;;;;;;5013954;28;20061;-62
2023/01/25 02:16:37;;;;;;;60.03;31.13;;;;;;;;;;5033183;28;20041;-61
2023/01/25 02:19:03;;;;;;;58.67;31.20;;;;;;;;;;5033598;28;20124;-61
2023/01/25 02:21:32;;;;;;;60.78;30.83;;;;;;;;;;5032425;28;20447;-61
2023/01/25 02:24:11;;;;;;;57.25;30.45;;;;;;;;;;5020463;28;20054;-61
2023/01/25 02:26:38;;;;;;;54.13;28.95;;;;;;;;;;5015817;28;20406;-61
2023/01/25 02:29:05;;;;;;;52.58;27.30;;;;;;;;;;5013560;28;20482;-61
2023/01/25 02:31:31;;;;;;;52.55;28.80;;;;;;;;;;5031375;28;20095;-61
2023/01/25 02:33:58;;;;;;;56.60;30.15;;;;;;;;;;5016995;28;20510;-62
2023/01/25 02:36:26;;;;;;;51.80;28.35;;;;;;;;;;5031543;28;20045;-62
2023/01/25 02:38:54;;;;;;;54.88;30.40;;;;;;;;;;5022401;28;20402;-62
2023/01/25 02:41:22;;;;;;;50.60;27.25;;;;;;;;;;5013553;28;20117;-62
2023/01/25 02:43:49;;;;;;;49.53;26.58;;;;;;;;;;5032171;28;20421;-62
2023/01/25 02:46:26;;;;;;;54.60;29.63;;;;;;;;;;5032254;28;20111;-62
2023/01/25 02:48:52;;;;;;;50.13;27.42;;;;;;;;;;5032294;28;20081;-62
2023/01/25 02:51:18;;;;;;;52.33;27.77;;;;;;;;;;5032521;28;20524;-61
2023/01/25 02:53:45;;;;;;;49.30;28.52;;;;;;;;;;5042291;28;20126;-62
2023/01/25 02:56:11;;;;;;;54.03;28.95;;;;;;;;;;5051895;28;20063;-62
2023/01/25 02:58:37;;;;;;;51.00;27.25;;;;;;;;;;5034803;28;20060;-62
2023/01/25 03:01:03;;;;;;;47.67;25.98;;;;;;;;;;5047928;28;20493;-62
2023/01/25 03:03:29;;;;;;;49.90;27.42;;;;;;;;;;5049839;28;20425;-61
2023/01/25 03:05:55;;;;;;;52.78;28.30;;;;;;;;;;5046608;28;20041;-62
2023/01/25 03:08:21;;;;;;;50.70;26.70;;;;;;;;;;5052497;28;20094;-62
2023/01/25 03:10:47;;;;;;;48.00;26.30;;;;;;;;;;5017423;28;20040;-62
2023/01/25 03:13:13;;;;;;;48.85;24.73;;;;;;;;;;5036418;28;20119;-62
2023/01/25 03:15:39;;;;;;;47.33;25.98;;;;;;;;;;5047692;28;20378;-63
2023/01/25 03:18:05;;;;;;;47.70;25.88;;;;;;;;;;5050579;28;20493;-61
2023/01/25 03:20:31;;;;;;;51.47;26.52;;;;;;;;;;5027374;28;20045;-62
2023/01/25 03:22:57;;;;;;;45.38;25.25;;;;;;;;;;5051756;28;20515;-62
2023/01/25 03:25:23;;;;;;;46.80;24.33;;;;;;;;;;5050039;28;20045;-62
2023/01/25 03:27:49;;;;;;;46.22;26.23;;;;;;;;;;5021833;28;20056;-62
2023/01/25 03:30:15;;;;;;;47.38;25.83;;;;;;;;;;5032479;28;20056;-62
2023/01/25 03:32:41;;;;;;;47.25;25.88;;;;;;;;;;5039470;28;20079;-62
2023/01/25 03:35:07;;;;;;;49.67;27.55;;;;;;;;;;5050897;28;20048;-62
2023/01/25 03:37:33;;;;;;;49.97;25.90;;;;;;;;;;5051595;28;20033;-62
2023/01/25 03:40:00;;;;;;;50.58;27.30;;;;;;;;;;5012512;28;20045;-61
2023/01/25 03:42:28;;;;;;;44.88;25.75;;;;;;;;;;5049982;28;20076;-62
2023/01/25 03:44:54;;;;;;;45.10;25.42;;;;;;;;;;5050502;28;20374;-61
2023/01/25 03:47:20;;;;;;;47.58;26.17;;;;;;;;;;5051648;28;20044;-62
2023/01/25 03:49:47;;;;;;;45.03;26.60;;;;;;;;;;5051614;28;20051;-62
2023/01/25 03:52:13;;;;;;;48.47;24.63;;;;;;;;;;5033682;28;20037;-62
2023/01/25 03:54:39;;;;;;;49.63;27.17;;;;;;;;;;5044585;28;20055;-62
2023/01/25 03:57:05;;;;;;;48.97;26.55;;;;;;;;;;5033963;28;20422;-62
2023/01/25 03:59:31;;;;;;;44.22;24.17;;;;;;;;;;5038913;28;20045;-62
2023/01/25 04:01:57;;;;;;;44.85;25.70;;;;;;;;;;5031918;28;20048;-62
2023/01/25 04:04:23;;;;;;;48.40;26.40;;;;;;;;;;5041157;28;20088;-62
2023/01/25 04:06:49;;;;;;;48.50;27.02;;;;;;;;;;5051924;28;20115;-62
2023/01/25 04:09:15;;;;;;;49.53;27.65;;;;;;;;;;5041103;28;20053;-62
2023/01/25 04:11:41;;;;;;;50.92;27.88;;;;;;;;;;5033959;28;20053;-62
2023/01/25 04:14:07;;;;;;;51.22;28.05;;;;;;;;;;5050954;28;20048;-62
2023/01/25 04:16:34;;;;;;;54.00;28.42;;;;;;;;;;5050710;28;20048;-62
2023/01/25 04:19:00;;;;;;;47.35;26.90;;;;;;;;;;5051893;28;20049;-62
2023/01/25 04:21:26;;;;;;;49.20;27.23;;;;;;;;;;5049402;28;20485;-62
2023/01/25 04:23:52;;;;;;;53.75;29.60;;;;;;;;;;5048928;28;20041;-62
2023/01/25 04:26:18;;;;;;;50.42;27.70;;;;;;;;;;5051452;28;20095;-62
2023/01/25 04:28:45;;;;;;;46.33;25.98;;;;;;;;;;5051127;28;20409;-62
2023/01/25 04:31:11;;;;;;;54.25;29.60;;;;;;;;;;5050321;28;20564;-62
2023/01/25 04:33:37;;;;;;;51.83;28.95;;;;;;;;;;5039779;28;20048;-62
2023/01/25 04:36:03;;;;;;;53.33;27.98;;;;;;;;;;5045365;28;20405;-62
2023/01/25 04:38:29;;;;;;;50.85;27.73;;;;;;;;;;5035233;28;20053;-62
2023/01/25 04:40:55;;;;;;;52.08;27.27;;;;;;;;;;5031382;28;20033;-61
2023/01/25 04:43:21;;;;;;;52.55;28.60;;;;;;;;;;5053560;28;20064;-62
2023/01/25 04:45:47;;;;;;;50.20;28.13;;;;;;;;;;5034315;28;20053;-62
2023/01/25 04:48:14;;;;;;;53.00;30.35;;;;;;;;;;5051895;28;20042;-62
2023/01/25 04:50:40;;;;;;;50.15;27.67;;;;;;;;;;5017664;28;20049;-62
2023/01/25 04:53:07;;;;;;;53.13;29.20;;;;;;;;;;5052409;28;20061;-62
2023/01/25 04:55:33;;;;;;;52.92;29.35;;;;;;;;;;5053955;28;20053;-61
2023/01/25 04:58:00;;;;;;;54.45;27.70;;;;;;;;;;5047755;28;20084;-61
2023/01/25 05:00:26;;;;;;;56.95;28.45;;;;;;;;;;5046708;28;20389;-62
2023/01/25 05:02:53;;;;;;;59.72;30.35;;;;;;;;;;5034932;28;20045;-62
2023/01/25 05:05:19;;;;;;;56.95;29.90;;;;;;;;;;5045692;28;20127;-62
2023/01/25 05:07:45;;;;;;;56.28;28.83;;;;;;;;;;5054514;28;20472;-62
2023/01/25 05:10:11;;;;;;;56.88;29.83;;;;;;;;;;5053686;28;20137;-61
2023/01/25 05:15:03;;;;;;;52.60;28.65;;;;;;;;;;5083099;23;20147;-61
2023/01/25 05:17:29;;;;;;;55.25;29.73;;;;;;;;;;5054420;28;20060;-62
2023/01/25 05:19:55;;;;;;;54.30;28.55;;;;;;;;;;5048899;28;20128;-62
2023/01/25 05:22:21;;;;;;;56.67;29.90;;;;;;;;;;5034590;28;20129;-62
2023/01/25 05:24:48;;;;;;;55.90;29.67;;;;;;;;;;5050088;28;20064;-62
2023/01/25 05:27:15;;;;;;;59.22;31.75;;;;;;;;;;5036984;28;20056;-62
2023/01/25 05:29:43;;;;;;;61.08;31.33;;;;;;;;;;5034177;28;20378;-62
2023/01/25 05:32:10;;;;;;;59.75;30.02;;;;;;;;;;5043602;28;20045;-62
2023/01/25 05:34:36;;;;;;;60.88;31.73;;;;;;;;;;5053476;28;20510;-62
2023/01/25 05:37:03;;;;;;;57.97;29.63;;;;;;;;;;5054373;28;20496;-61
2023/01/25 05:39:30;;;;;;;60.15;29.85;;;;;;;;;;5054111;28;20056;-62
2023/01/25 05:41:56;;;;;;;59.15;30.58;;;;;;;;;;5053889;28;20037;-62
2023/01/25 05:44:22;;;;;;;60.63;29.73;;;;;;;;;;5035665;28;20123;-62
2023/01/25 05:46:48;;;;;;;56.15;28.48;;;;;;;;;;5054186;28;20257;-62
2023/01/25 05:49:15;;;;;;;55.58;27.05;;;;;;;;;;5053581;28;20511;-62
2023/01/25 05:51:41;;;;;;;58.13;29.05;;;;;;;;;;5053756;28;20120;-62
2023/01/25 05:54:11;;;;;;;57.25;28.65;;;;;;;;;;5054022;28;20397;-62
2023/01/25 05:56:37;;;;;;;55.30;29.30;;;;;;;;;;5053460;28;20099;-62
2023/01/25 05:59:03;;;;;;;55.67;28.05;;;;;;;;;;5031898;28;20045;-62
2023/01/25 06:01:29;;;;;;;55.08;27.77;;;;;;;;;;5053419;28;20115;-62
2023/01/25 06:03:56;;;;;;;55.45;27.95;;;;;;;;;;5053173;28;20124;-62
2023/01/25 06:06:22;;;;;;;60.58;29.95;;;;;;;;;;5042406;28;20045;-62
2023/01/25 06:08:48;;;;;;;56.97;27.17;;;;;;;;;;5033952;28;20460;-62
2023/01/25 06:11:16;;;;;;;54.17;27.25;;;;;;;;;;5018255;28;20077;-62
2023/01/25 06:13:42;;;;;;;54.10;28.13;;;;;;;;;;5052810;28;20444;-62
2023/01/25 06:16:08;;;;;;;57.75;28.58;;;;;;;;;;5053891;28;20060;-62
2023/01/25 06:18:35;;;;;;;54.05;27.58;;;;;;;;;;5053283;28;20041;-62
2023/01/25 06:21:01;;;;;;;55.30;26.73;;;;;;;;;;5046516;28;20090;-62
2023/01/25 06:23:28;;;;;;;63.47;29.50;;;;;;;;;;5034264;28;20046;-61
2023/01/25 06:25:57;;;;;;;56.92;28.10;;;;;;;;;;5033644;28;20041;-62
2023/01/25 06:28:23;;;;;;;62.40;30.50;;;;;;;;;;5032819;28;20045;-62
2023/01/25 06:30:49;;;;;;;65.85;30.73;;;;;;;;;;5015878;28;20106;-62
2023/01/25 06:33:15;;;;;;;62.13;30.00;;;;;;;;;;5019556;28;20060;-62
2023/01/25 06:35:42;;;;;;;61.42;30.83;;;;;;;;;;5027074;28;20448;-62
2023/01/25 06:38:08;;;;;;;60.45;30.02;;;;;;;;;;5016070;28;20053;-61
2023/01/25 06:40:34;;;;;;;63.15;29.77;;;;;;;;;;5038935;28;20094;-61
2023/01/25 06:43:07;;;;;;;62.90;29.92;;;;;;;;;;5052280;28;20542;-62
2023/01/25 06:45:33;;;;;;;60.40;29.15;;;;;;;;;;5043006;28;20053;-62
2023/01/25 06:47:59;;;;;;;57.63;28.55;;;;;;;;;;5052356;28;20048;-61
2023/01/25 06:50:25;;;;;;;60.53;27.83;;;;;;;;;;5035336;28;20102;-62
2023/01/25 06:52:52;;;;;;;57.45;27.77;;;;;;;;;;5038962;28;20042;-62
2023/01/25 06:55:18;;;;;;;58.80;29.00;;;;;;;;;;5045427;28;20455;-62
2023/01/25 06:57:44;;;;;;;61.08;28.48;;;;;;;;;;5035880;28;20144;-61
2023/01/25 07:00:10;;;;;;;60.28;28.98;;;;;;;;;;5032740;28;20088;-62
2023/01/25 07:02:37;;;;;;;62.88;28.73;;;;;;;;;;5046622;28;20095;-61
2023/01/25 07:05:03;;;;;;;61.42;29.13;;;;;;;;;;5052452;28;20163;-62
2023/01/25 07:07:29;;;;;;;61.83;28.42;;;;;;;;;;5051124;28;20098;-62
2023/01/25 07:09:57;;;;;;;60.08;29.02;;;;;;;;;;5052617;28;20128;-62
2023/01/25 07:12:24;;;;;;;63.30;30.00;;;;;;;;;;5051735;28;20041;-62
2023/01/25 07:14:50;;;;;;;59.55;27.13;;;;;;;;;;5052132;28;20061;-62
2023/01/25 07:17:16;;;;;;;64.90;30.17;;;;;;;;;;5051770;28;20485;-62
2023/01/25 07:19:42;;;;;;;58.78;28.15;;;;;;;;;;5018226;28;20056;-62
2023/01/25 07:22:08;;;;;;;60.83;27.63;;;;;;;;;;5030111;28;20051;-61
2023/01/25 07:24:34;;;;;;;56.78;27.70;;;;;;;;;;5024032;28;20045;-61
2023/01/25 07:27:00;;;;;;;59.97;28.48;;;;;;;;;;5014562;28;20045;-62
2023/01/25 07:29:26;;;;;;;60.67;27.63;;;;;;;;;;5032123;28;20099;-62
2023/01/25 07:31:52;;;;;;;56.00;27.38;;;;;;;;;;5048435;28;20044;-62
2023/01/25 07:34:18;;;;;;;57.17;27.30;;;;;;;;;;5026842;28;20049;-62
2023/01/25 07:36:45;;;;;;;62.25;28.67;;;;;;;;;;5032288;28;20054;-62
2023/01/25 07:39:12;;;;;;;63.40;30.30;;;;;;;;;;5014647;28;20107;-62
2023/01/25 07:41:38;;;;;;;61.35;28.52;;;;;;;;;;5014297;28;20050;-62
2023/01/25 07:44:05;;;;;;;58.25;28.00;;;;;;;;;;5032083;28;20049;-62
2023/01/25 07:46:31;;;;;;;58.15;25.48;;;;;;;;;;5031913;28;20044;-61
2023/01/25 07:49:00;;;;;;;62.17;28.88;;;;;;;;;;5038689;28;20106;-61
2023/01/25 07:51:26;;;;;;;59.35;27.50;;;;;;;;;;5021365;28;20132;-62
2023/01/25 07:53:54;;;;;;;60.75;26.73;;;;;;;;;;5031673;28;20513;-62
2023/01/25 07:56:21;;;;;;;61.70;27.90;;;;;;;;;;5032222;28;20052;-61
2023/01/25 07:58:47;;;;;;;58.88;26.88;;;;;;;;;;5032102;28;20052;-61
2023/01/25 08:01:18;;;;;;;60.28;26.05;;;;;;;;;;5021989;28;20045;-61
2023/01/25 08:03:44;;;;;;;62.90;27.98;;;;;;;;;;5032031;28;20041;-61
2023/01/25 08:06:10;;;;;;;64.57;28.48;;;;;;;;;;5032059;28;20053;-61
2023/01/25 08:08:38;;;;;;;57.10;23.10;;;;;;;;;;5014981;28;20045;-61
2023/01/25 08:11:31;;;;;;;61.60;29.17;;;;;;;;;;5036002;28;20073;-61
2023/01/25 08:13:57;;;;;;;57.90;27.77;;;;;;;;;;5031856;28;20061;-61
2023/01/25 08:16:24;;;;;;;65.47;30.48;;;;;;;;;;5045997;28;20127;-61
2023/01/25 08:18:52;;;;;;;61.50;27.48;;;;;;;;;;5045663;28;20048;-61
2023/01/25 08:21:18;;;;;;;60.90;28.45;;;;;;;;;;5034273;28;20044;-62
2023/01/25 08:23:44;;;;;;;57.75;25.90;;;;;;;;;;5017334;28;20041;-62
2023/01/25 08:26:11;;;;;;;52.42;23.42;;;;;;;;;;5035820;28;20043;-62
2023/01/25 08:28:37;;;;;;;61.05;28.05;;;;;;;;;;5038519;28;20040;-61
2023/01/25 08:31:23;;;;;;;59.17;26.92;;;;;;;;;;5045118;28;20094;-62
2023/01/25 08:33:50;;;;;;;63.40;28.38;;;;;;;;;;5054778;28;20103;-62
2023/01/25 08:36:17;;;;;;;64.03;29.48;;;;;;;;;;5050879;28;20049;-63
2023/01/25 08:38:43;;;;;;;60.75;27.98;;;;;;;;;;5036263;28;20412;-63
2023/01/25 08:41:11;;;;;;;60.47;27.77;;;;;;;;;;5045086;28;20053;-63
2023/01/25 08:43:38;;;;;;;59.75;26.58;;;;;;;;;;5025124;28;20123;-62
2023/01/25 08:46:04;;;;;;;58.80;27.23;;;;;;;;;;5052096;28;20121;-62
2023/01/25 08:48:30;;;;;;;58.15;28.30;;;;;;;;;;5039685;28;20105;-62
2023/01/25 08:50:56;;;;;;;60.78;26.33;;;;;;;;;;5050429;28;20116;-62
2023/01/25 08:53:22;;;;;;;57.42;25.63;;;;;;;;;;5053807;28;20049;-62
2023/01/25 08:55:48;;;;;;;66.88;29.27;;;;;;;;;;5054412;28;20040;-62
2023/01/25 08:58:15;;;;;;;59.35;26.77;;;;;;;;;;5054085;28;20067;-62
2023/01/25 09:00:42;;;;;;;63.97;28.23;;;;;;;;;;5052836;28;20041;-62
2023/01/25 09:03:09;;;;;;;60.83;28.70;;;;;;;;;;5054767;28;20518;-62
2023/01/25 09:05:36;;;;;;;64.18;27.05;;;;;;;;;;5053805;28;20045;-62
2023/01/25 09:08:02;;;;;;;61.22;26.52;;;;;;;;;;5052635;28;20041;-62
2023/01/25 09:10:28;;;;;;;54.75;24.70;;;;;;;;;;5052632;28;20492;-62
2023/01/25 09:12:54;;;;;;;61.28;27.15;;;;;;;;;;5052815;28;20055;-63
2023/01/25 09:15:21;;;;;;;63.60;29.05;;;;;;;;;;5050094;28;20140;-63
2023/01/25 09:17:50;;;;;;;66.63;27.73;;;;;;;;;;5052311;28;20099;-63
2023/01/25 09:20:16;;;;;;;70.80;29.17;;;;;;;;;;5036439;28;20110;-62
2023/01/25 09:22:42;;;;;;;63.35;27.92;;;;;;;;;;5053657;28;20052;-62
2023/01/25 09:25:08;;;;;;;67.03;29.38;;;;;;;;;;5054370;28;20045;-63
2023/01/25 09:27:34;;;;;;;69.07;30.42;;;;;;;;;;5052413;28;20443;-62
2023/01/25 09:30:00;;;;;;;67.63;29.67;;;;;;;;;;5053798;28;20047;-62
2023/01/25 09:32:26;;;;;;;60.10;25.88;;;;;;;;;;5052887;28;20086;-62
2023/01/25 09:34:52;;;;;;;63.22;26.83;;;;;;;;;;5053449;28;20053;-63
2023/01/25 09:37:18;;;;;;;67.65;28.73;;;;;;;;;;5043222;28;20049;-63
2023/01/25 09:39:44;;;;;;;55.40;22.15;;;;;;;;;;5040386;28;20603;-62
2023/01/25 09:42:23;;;;;;;68.13;29.77;;;;;;;;;;5048923;28;20094;-62
2023/01/25 09:44:51;;;;;;;66.68;28.63;;;;;;;;;;5044351;28;20075;-62
2023/01/25 09:47:26;;;;;;;59.40;26.63;;;;;;;;;;5052640;28;20528;-62
2023/01/25 09:50:29;;;;;;;64.07;27.10;;;0.60;99.90;;;;;;5052135;28;20053;-62
2023/01/25 09:53:11;;;;;;;63.30;26.80;;;;;;;;;;5034020;28;20101;-62
2023/01/25 09:55:37;;;;;;;67.47;28.05;;;;;;;;;;5045184;28;20087;-62
2023/01/25 09:58:04;;;;;;;68.00;29.10;;;;;;;;;;5046622;28;20041;-62
2023/01/25 10:00:35;;;;;;;69.28;29.08;;;;;;;;;;5050865;28;20056;-62
2023/01/25 10:03:15;;;;;;;65.28;26.55;;;;;;;;;;5046103;28;20037;-62
2023/01/25 10:05:46;;;;;;;66.45;27.55;;;;;;;;;;5046977;28;20045;-62
2023/01/25 10:08:13;;;;;;;78.43;30.50;;;;;;;;;;5040921;28;20116;-62
2023/01/25 10:10:41;;;;;;;75.65;29.60;;;;;;;;;;5041308;28;20083;-62
2023/01/25 10:13:15;;;;;;;74.13;31.35;;;;;;;;;;5045732;28;20099;-63
2023/01/25 10:15:48;;;;;;;67.30;27.50;;;;;;;;;;5027637;28;20049;-63
2023/01/25 10:18:26;;;;;;;68.03;27.02;;;;;;;;;;5030383;28;20480;-63
2023/01/25 10:21:02;;;;;;;65.38;27.35;;;;;;;;;;5045033;28;20041;-63
2023/01/25 10:23:39;;;;;;;65.45;25.63;;;;;;;;;;5038990;28;20034;-63
2023/01/25 10:26:29;;;;;;;62.97;23.77;;;;;;;;;;5039060;28;20041;-63
2023/01/25 10:28:59;;;;;;;49.47;19.60;;;;;;;;;;5034855;28;20057;-63
2023/01/25 10:31:29;;;;;;;;;;;1.10;99.90;;;;;;5042933;28;20041;-63
2023/01/25 10:33:56;;;;;;;59.53;23.83;;;;;;;;;;5045423;28;19920;-63
2023/01/25 10:36:27;;;;;;;67.30;26.83;;;;;;;;;;5043176;28;20091;-63
2023/01/25 10:38:58;;;;;;;71.38;28.50;;;;;;;;;;5044976;28;20045;-63
2023/01/25 10:41:32;;;;;;;72.63;30.58;;;;;;;;;;5028391;28;20077;-63
2023/01/25 10:46:46;;;;;;;67.25;27.50;;;;;;;;;;5048364;28;20497;-63
2023/01/25 10:49:22;;;;;;;64.90;26.63;;;;;;;;;;5052507;28;20053;-63
2023/01/25 10:51:48;;;;;;;59.10;23.10;;;;;;;;;;5034762;28;20417;-63
2023/01/25 10:54:15;;;;;;;65.32;25.42;;;;;;;;;;5051755;28;20473;-63
2023/01/25 10:56:43;;;;;;;64.25;26.15;;;;;;;;;;5050622;28;20098;-64
2023/01/25 10:59:20;;;;;;;66.25;26.40;;;;;;;;;;5052153;28;20056;-63
2023/01/25 11:01:46;;;;;;;63.33;22.70;;;;;;;;;;5026904;28;20037;-63
2023/01/25 11:04:24;;;;;;;60.70;22.63;;;;;;;;;;5029782;28;20067;-63
2023/01/25 11:06:51;;;;;;;57.08;22.55;;;;;;;;;;5052145;28;20056;-63
2023/01/25 11:09:20;;;;;;;57.75;22.35;;;;;;;;;;5034958;28;20049;-63
2023/01/25 11:11:55;;;;;;;62.10;24.80;;;;;;;;;;5034200;28;20119;-63
2023/01/25 11:14:23;;;;;;;64.78;24.42;;;;;;;;;;5050766;28;20076;-63
2023/01/25 11:16:49;;;;;;;64.63;25.15;;;;;;;;;;5032078;28;20061;-63
2023/01/25 11:19:32;;;;;;;72.63;26.80;;;;;;;;;;5049879;28;20049;-63
2023/01/25 11:21:59;;;;;;;83.18;28.00;;;;;;;;;;5043596;28;20103;-63
2023/01/25 11:24:29;;;;;;;93.15;32.30;;;;;;;;;;5033153;28;20064;-63
2023/01/25 11:27:11;;;;;;;107.60;36.03;;;;;;;;;;5052071;28;20053;-63
2023/01/25 11:29:37;;;;;;;102.43;35.83;;;;;;;;;;5038949;28;20508;-63
2023/01/25 11:32:13;;;;;;;96.18;35.65;;;;;;;;;;5031828;28;20434;-63
2023/01/25 11:34:39;;;;;;;104.75;34.58;;;;;;;;;;5084899;23;20138;-63
2023/01/25 11:37:09;;;;;;;96.53;32.30;;;;;;;;;;5059600;22;20052;-63
2023/01/25 11:39:44;;;;;;;84.40;28.58;;;;;;;;;;5037745;28;20052;-62
2023/01/25 11:42:22;;;;;;;73.20;26.27;;;;;;;;;;5034317;28;20532;-62
2023/01/25 11:45:22;;;;;;;72.82;26.35;;;1.10;99.90;;;;;;5025423;28;20038;-62
2023/01/25 11:47:51;;;;;;;73.85;27.50;;;;;;;;;;5041158;28;20045;-62
2023/01/25 11:50:23;;;;;;;77.35;25.58;;;;;;;;;;5055912;28;20056;-62
2023/01/25 11:53:02;;;;;;;81.88;27.17;;;;;;;;;;5052188;28;20041;-62
2023/01/25 11:55:32;;;;;;;68.07;24.42;;;;;;;;;;5031898;28;20542;-62
2023/01/25 11:58:07;;;;;;;77.15;27.30;;;;;;;;;;5049981;28;20041;-62
2023/01/25 12:00:43;;;;;;;73.25;25.27;;;;;;;;;;5033049;28;20123;-62
2023/01/25 12:03:09;;;;;;;76.65;26.50;;;;;;;;;;5034018;28;20076;-61
2023/01/25 12:05:53;;;;;;;74.68;28.25;;;;;;;;;;5051424;28;20095;-62
2023/01/25 12:08:49;;;;;;;74.95;28.02;;;;;;;;;;5050396;28;20123;-62
2023/01/25 12:11:18;;;;;;;64.47;24.35;;;;;;;;;;4950958;29;20046;-62
2023/01/25 12:13:47;;;;;;;68.45;23.63;;;;;;;;;;4950356;29;20051;-62
2023/01/25 12:16:15;;;;;;;68.40;23.23;;;;;;;;;;4950592;29;20061;-62
2023/01/25 12:18:41;;;;;;;67.15;24.25;;;;;;;;;;4951541;29;20166;-62
2023/01/25 12:21:07;;;;;;;69.22;25.55;;;;;;;;;;4950237;29;20118;-62
2023/01/25 12:23:36;;;;;;;70.03;24.63;;;;;;;;;;4949782;29;20665;-62
2023/01/25 12:26:11;;;;;;;62.72;23.23;;;;;;;;;;4945245;29;20502;-61
2023/01/25 12:29:10;;;;;;;64.95;24.90;;;1.50;99.90;;;;;;4924100;29;20052;-61
2023/01/25 12:31:39;;;;;;;63.67;22.40;;;;;;;;;;4893520;29;20066;-62
2023/01/25 12:34:18;;;;;;;64.22;23.85;;;;;;;;;;4901741;29;20109;-62
2023/01/25 12:36:45;;;;;;;72.30;26.02;;;;;;;;;;4912122;29;20044;-62
2023/01/25 12:39:14;;;;;;;76.22;27.95;;;;;;;;;;4904087;29;20083;-61
2023/01/25 12:42:01;;;;;;;59.08;23.00;;;;;;;;;;4911869;29;20504;-62
2023/01/25 12:44:30;;;;;;;65.63;23.98;;;;;;;;;;4910944;29;20114;-62
2023/01/25 12:47:00;;;;;;;67.75;23.40;;;;;;;;;;4920574;29;20504;-62
2023/01/25 12:49:26;;;;;;;64.87;24.67;;;;;;;;;;4951073;29;20487;-61
2023/01/25 12:51:53;;;;;;;72.43;28.95;;;;;;;;;;4951464;29;20047;-62
2023/01/25 12:54:25;;;;;;;68.32;25.67;;;;;;;;;;4951370;28;20502;-62
2023/01/25 12:57:01;;;;;;;69.10;26.15;;;;;;;;;;4956313;28;20039;-62
2023/01/25 12:59:46;;;;;;;68.25;24.90;;;;;;;;;;4949310;28;20403;-62
2023/01/25 13:02:33;;;;;;;64.18;24.40;;;;;;;;;;4955312;28;20044;-62
2023/01/25 13:05:12;;;;;;;64.82;26.65;;;;;;;;;;4954943;29;20134;-62
2023/01/25 13:07:53;;;;;;;64.88;22.42;;;;;;;;;;4967136;28;20171;-62
2023/01/25 13:10:42;;;;;;;68.78;26.25;;;1.30;99.90;;;;;;5033364;28;20465;-61
2023/01/25 13:13:22;;;;;;;77.32;29.23;;;;;;;;;;5013304;28;20033;-62
2023/01/25 13:15:48;;;;;;;84.85;31.05;;;;;;;;;;5028590;28;20564;-62
2023/01/25 13:18:30;;;;;;;87.57;30.80;;;;;;;;;;5033813;28;20081;-61
2023/01/25 13:20:56;;;;;;;83.15;28.75;;;;;;;;;;5028409;28;20497;-62
2023/01/25 13:23:33;;;;;;;79.50;27.05;;;;;;;;;;5033360;28;20068;-62
2023/01/25 13:26:21;;;;;;;67.63;23.52;;;1.20;99.90;;;;;;5016241;28;20052;-61
2023/01/25 13:28:47;;;;;;;70.40;27.17;;;;;;;;;;5033486;28;20045;-62
2023/01/25 13:31:37;;;;;;;67.93;25.50;;;1.60;99.90;;;;;;5029331;28;20044;-61
2023/01/25 13:34:23;;;;;;;72.13;26.15;;;;;;;;;;5011229;28;20041;-62
2023/01/25 13:36:53;;;;;;;67.13;24.15;;;;;;;;;;5037661;28;20481;-62
2023/01/25 13:39:28;;;;;;;78.40;28.35;;;;;;;;;;5034634;28;20405;-61
2023/01/25 13:42:01;;;;;;;89.80;31.13;;;;;;;;;;5041434;28;20118;-61
2023/01/25 13:44:28;;;;;;;74.03;28.52;;;;;;;;;;5043980;28;20389;-62
2023/01/25 13:46:59;;;;;;;81.57;30.85;;;;;;;;;;5054414;28;20091;-60
2023/01/25 13:49:27;;;;;;;87.00;30.02;;;;;;;;;;5036221;28;20473;-61
2023/01/25 13:51:54;;;;;;;79.53;28.80;;;;;;;;;;5031248;28;20048;-61
2023/01/25 13:54:20;;;;;;;79.15;30.92;;;;;;;;;;5035636;28;20380;-61
2023/01/25 13:56:46;;;;;;;86.53;31.05;;;;;;;;;;5053071;28;20047;-61
2023/01/25 13:59:27;;;;;;;90.47;32.22;;;;;;;;;;5044764;28;20044;-61
2023/01/25 14:01:54;;;;;;;85.05;31.45;;;;;;;;;;5035360;28;20041;-61
2023/01/25 14:04:20;;;;;;;95.55;32.53;;;;;;;;;;5036138;28;20052;-61
2023/01/25 14:06:46;;;;;;;92.43;34.13;;;;;;;;;;5052569;28;20052;-61
2023/01/25 14:09:15;;;;;;;88.38;32.10;;;;;;;;;;5055993;28;20095;-61
2023/01/25 14:11:49;;;;;;;88.90;33.17;;;;;;;;;;5068512;28;20119;-61
2023/01/25 14:14:26;;;;;;;85.78;31.08;;;;;;;;;;5045541;28;20565;-61
2023/01/25 14:17:04;;;;;;;98.63;32.15;;;;;;;;;;5037790;28;20037;-61
2023/01/25 14:19:31;;;;;;;99.10;34.83;;;;;;;;;;5053418;28;20049;-61
2023/01/25 14:22:30;;;;;;;128.80;43.42;;;1.10;99.90;;;;;;5033804;28;20033;-61
2023/01/25 14:25:03;;;;;;;168.40;56.55;;;;;;;;;;4996150;28;20053;-61
2023/01/25 14:27:30;;;;;;;147.80;49.30;;;;;;;;;;5052494;28;20056;-61
2023/01/25 14:29:56;;;;;;;148.35;48.92;;;;;;;;;;5034263;28;20047;-61
2023/01/25 14:32:24;;;;;;;110.90;36.17;;;;;;;;;;5053144;28;20469;-61